Data for 11/19/2012

Time Sea-Level Adjusted Pressure Absolute Pressure Temperature Relative Humidity Dew Point   
(mb) (inHg) (mb) (inHg) (C) (F) (%) (C) (F)
00:05 1018 30.06 847 25.01 0.8 33.4 78 -2.7 27.1
00:10 1018 30.06 847 25.01 0.7 33.2 77 -2.9 26.8
00:15 1018 30.06 847 25.01 0.8 33.4 76 -2.9 26.7
00:20 1018 30.06 847 25.01 1.1 33.9 74 -3 26.6
00:25 1018 30.06 847 25.01 1.3 34.3 73 -3 26.6
00:30 1018 30.06 847 25.01 1.5 34.7 72 -2.9 26.8
00:35 1018 30.06 847 25.01 1.4 34.5 73 -2.9 26.8
00:40 1018 30.06 847 25.01 1.2 34.2 74 -2.9 26.8
00:45 1018 30.06 847 25.01 1 33.8 75 -2.9 26.7
00:50 1018 30.06 847 25.01 1 33.7 75 -3 26.7
00:55 1018 30.06 847 25.01 1.1 33.9 74 -3.1 26.5
01:00 1018 30.06 847 25.01 0.8 33.5 76 -2.9 26.8
01:05 1018 30.06 847 25.01 0.5 32.9 76 -3.3 26
01:10 1018 30.06 847 25.01 0.6 33.1 74 -3.5 25.7
01:15 1018 30.06 847 25.01 0.9 33.5 73 -3.4 25.9
01:20 1018 30.06 847 25.01 0.8 33.5 74 -3.2 26.2
01:25 1018 30.06 847 25.01 0.6 33.1 75 -3.3 26.1
01:30 1018 30.06 847 25.01 0.5 32.8 75 -3.4 25.9
01:35 1018 30.06 847 25.01 0.1 32.1 78 -3.3 26.1
01:40 1018 30.06 847 25.01 -0.5 31.2 79 -3.6 25.5
01:45 1018 30.06 847 25.01 -0.5 31.1 79 -3.7 25.4
01:50 1018 30.06 847 25.01 -0.1 31.7 75 -4 24.8
01:55 1018 30.06 847 25.01 0.4 32.8 74 -3.7 25.3
02:00 1018 30.06 847 25.01 0.4 32.8 74 -3.8 25.2
02:05 1018 30.06 847 25.01 0.4 32.6 73 -3.9 24.9
02:10 1018 30.06 847 25.01 0 32 74 -4.2 24.5
02:15 1018 30.06 847 25.01 -0.1 31.8 74 -4.2 24.5
02:20 1018 30.06 847 25.01 -0.2 31.7 73 -4.4 24.1
02:25 1018 30.06 847 25.01 -0.1 31.9 74 -4.2 24.5
02:30 1018 30.06 847 25.01 0.1 32.2 73 -4.1 24.7
02:35 1018 30.06 847 25.01 0 32 73 -4.2 24.5
02:40 1018 30.06 847 25.01 0 32 72 -4.4 24
02:45 1018 30.06 847 25.01 0.1 32.1 71 -4.5 23.9
02:50 1018 30.06 847 25.01 -0.1 31.9 73 -4.3 24.2
02:55 1018 30.06 847 25.01 -0.1 31.8 73 -4.4 24.1
03:00 1018 30.06 847 25.01 0.1 32.2 70 -4.6 23.7
03:05 1018 30.06 847 25.01 0.3 32.6 69 -4.6 23.6
03:10 1018 30.06 847 25.01 0.6 33.1 67 -4.9 23.2
03:15 1018 30.06 847 25.01 0.9 33.6 66 -4.8 23.4
03:20 1018 30.06 847 25.01 0.6 33.2 67 -4.9 23.3
03:25 1018 30.06 847 25.01 0.6 33.1 66 -5 23.1
03:30 1018 30.06 847 25.01 0.8 33.5 64 -5.3 22.4
03:35 1018 30.06 847 25.01 0.9 33.6 64 -5.2 22.6
03:40 1018 30.06 847 25.01 0.7 33.3 65 -5 23
03:45 1018 30.06 847 25.01 0.7 33.3 64 -5.3 22.5
03:50 1018 30.06 847 25.01 1 33.7 62 -5.4 22.2
03:55 1018 30.06 847 25.01 1 33.9 62 -5.5 22.1
04:00 1018 30.06 847 25.01 1.1 34.1 60 -5.8 21.6
04:05 1018 30.06 847 25.01 1.3 34.3 60 -5.7 21.8
04:10 1018 30.06 847 25.01 1.2 34.2 60 -5.6 21.8
04:15 1018 30.06 847 25.01 1.2 34.2 60 -5.8 21.6
04:20 1018 30.06 847 25.01 1.2 34.2 59 -5.8 21.6
04:25 1018 30.06 847 25.01 1.3 34.4 59 -5.8 21.5
04:30 1018 30.06 847 25.01 1.3 34.3 59 -5.8 21.5
04:35 1018 30.06 847 25.01 1.1 34 61 -5.7 21.8
04:40 1018 30.06 847 25.01 0.9 33.6 61 -5.9 21.4
04:45 1018 30.06 847 25.01 0.8 33.4 59 -6.3 20.7
04:50 1018 30.06 847 25.01 1.1 34.1 58 -6.3 20.7
04:55 1018 30.06 847 25.01 1.2 34.2 57 -6.3 20.7
05:00 1018 30.06 847 25.01 1.2 34.1 58 -6.2 20.8
05:05 1018 30.06 847 25.01 1.1 34 57 -6.5 20.4
05:10 1018 30.06 847 25.01 1.1 33.9 59 -6.1 21.1
05:15 1018 30.06 847 25.01 0.9 33.7 57 -6.6 20.1
05:20 1018 30.06 847 25.01 1 33.8 57 -6.6 20.2
05:25 1018 30.06 847 25.01 0.9 33.6 56 -6.8 19.8
05:30 1018 30.06 847 25.01 0.9 33.6 57 -6.8 19.8
05:35 1018 30.06 847 25.01 0.7 33.2 60 -6.2 20.8
05:40 1018 30.06 848 25.04 -0.1 31.9 63 -6.2 20.8
05:45 1018 30.06 847 25.01 -0.3 31.5 61 -7 19.4
05:50 1018 30.06 847 25.01 0.2 32.3 59 -6.9 19.6
05:55 1018 30.06 847 25.01 0.2 32.4 60 -6.6 20.1
06:00 1018 30.06 847 25.01 0 32 60 -6.9 19.6
06:05 1018 30.06 847 25.01 0 32 61 -6.7 20
06:10 1018 30.06 847 25.01 -0.2 31.6 62 -6.6 20
06:15 1018 30.06 847 25.01 -0 31.9 59 -7 19.4
06:20 1018 30.06 847 25.01 -0.1 31.9 60 -6.9 19.6
06:25 1018 30.06 847 25.01 -0.1 31.8 57 -7.5 18.4
06:30 1018 30.06 847 25.01 -0 31.9 58 -7.4 18.7
06:35 1018 30.06 847 25.01 -0.5 31.1 62 -6.9 19.7
06:40 1018 30.06 847 25.01 -1.2 29.8 65 -7.1 19.3
06:45 1018 30.06 847 25.01 -1.3 29.6 63 -7.4 18.7
06:50 1018 30.06 847 25.01 -1 30.2 62 -7.4 18.7
06:55 1018 30.06 847 25.01 -0.6 31 60 -7.5 18.5
07:00 1018 30.06 847 25.01 -0.6 30.8 62 -6.9 19.5
07:05 1018 30.06 847 25.01 -1.1 29.9 64 -7 19.4
07:10 1018 30.06 847 25.01 -1.2 29.9 61 -7.6 18.3
07:15 1018 30.06 847 25.01 -0.4 31.2 60 -7.3 18.8
07:20 1018 30.06 847 25.01 -0.5 31.2 60 -7.4 18.8
07:25 1018 30.06 847 25.01 -0.3 31.4 57 -7.8 18
07:30 1018 30.06 847 25.01 0.2 32.4 56 -7.4 18.6
07:35 1018 30.06 847 25.01 0.2 32.3 55 -7.8 17.9
07:40 1018 30.06 847 25.01 0.7 33.3 53 -7.7 18.1
07:45 1018 30.06 847 25.01 0.7 33.2 55 -7.4 18.6
07:50 1018 30.06 847 25.01 0.4 32.8 55 -7.5 18.5
07:55 1018 30.06 847 25.01 0.4 32.6 55 -7.6 18.4
08:00 1018 30.06 847 25.01 0.5 33 54 -7.6 18.3
08:05 1018 30.06 847 25.01 0.6 33 54 -7.7 18.2
08:10 1018 30.06 847 25.01 0.8 33.5 54 -7.6 18.4
08:15 1018 30.06 847 25.01 0.8 33.5 54 -7.5 18.6
08:20 1018 30.06 847 25.01 0.8 33.4 55 -7.3 18.9
08:25 1018 30.06 847 25.01 0.6 33 56 -7.2 19
08:30 1018 30.06 847 25.01 0.4 32.8 57 -7.1 19.2
08:35 1018 30.06 847 25.01 0.2 32.4 59 -6.8 19.7
08:40 1018 30.06 847 25.01 -0 31.9 60 -6.9 19.7
08:45 1018 30.06 847 25.01 -0 31.9 59 -7.1 19.2
08:50 1018 30.06 848 25.04 0.4 32.8 58 -7 19.4
08:55 1018 30.06 848 25.04 0.3 32.6 59 -6.8 19.8
09:00 1018 30.06 848 25.04 0.5 32.9 57 -7 19.4
09:05 1019 30.09 848 25.04 1 33.8 55 -7.1 19.2
09:10 1019 30.09 848 25.04 1.4 34.5 54 -7 19.5
09:15 1019 30.09 848 25.04 1.2 34.2 54 -7.1 19.3
09:20 1019 30.09 848 25.04 1.5 34.8 53 -7 19.3
09:25 1019 30.09 848 25.04 1.5 34.8 54 -6.7 19.9
09:30 1019 30.09 848 25.04 1.5 34.6 54 -6.9 19.6
09:35 1019 30.09 848 25.04 1.7 35.1 53 -6.9 19.6
09:40 1019 30.09 848 25.04 2.1 35.7 52 -6.8 19.8
09:45 1019 30.09 848 25.04 2.4 36.3 52 -6.6 20.1
09:50 1019 30.09 848 25.04 2.8 37 50 -6.6 20.1
09:55 1019 30.09 848 25.04 3.4 38.2 48 -6.6 20.1
10:00 1019 30.09 848 25.04 3.6 38.5 49 -6.1 21.1
10:05 1019 30.09 848 25.04 3.5 38.2 51 -5.9 21.5
10:10 1019 30.09 848 25.04 3 37.4 54 -5.4 22.3
10:15 1019 30.09 848 25.04 3.1 37.6 51 -6 21.2
10:20 1019 30.09 848 25.04 4 39.3 48 -5.9 21.3
10:25 1019 30.09 848 25.04 4.5 40 49 -5.2 22.6
10:30 1019 30.09 849 25.07 4.7 40.5 49 -5.2 22.7
10:35 1019 30.09 849 25.07 5 41.1 46 -5.5 22.1
10:40 1019 30.09 849 25.07 6 42.8 44 -5.4 22.2
10:45 1019 30.09 849 25.07 6.4 43.4 45 -4.7 23.5
10:50 1019 30.09 848 25.04 6.5 43.6 46 -4.4 24
10:55 1019 30.09 848 25.04 6.6 43.8 44 -4.8 23.3
11:00 1019 30.09 848 25.04 7 44.6 42 -4.9 23.1
11:05 1019 30.09 848 25.04 7.7 45.8 42 -4.4 24
11:10 1019 30.09 848 25.04 8.4 47.1 40 -4.5 23.9
11:15 1019 30.09 848 25.04 8.6 47.5 38 -4.9 23.2
11:20 1019 30.09 849 25.07 9.1 48.4 37 -4.8 23.3
11:25 1019 30.09 849 25.07 9.3 48.7 37 -4.7 23.6
11:30 1020 30.12 849 25.07 9.5 49.2 38 -4.1 24.5
11:35 1020 30.12 849 25.07 8.2 46.8 43 -3.6 25.5
11:40 1020 30.12 849 25.07 7.6 45.7 45 -3.5 25.7
11:45 1020 30.12 849 25.07 7.8 46.1 42 -4.2 24.5
11:50 1020 30.12 849 25.07 8.1 46.6 42 -4.1 24.6
11:55 1020 30.12 849 25.07 8.7 47.7 40 -4.1 24.6
12:00 1020 30.12 849 25.07 9 48.2 40 -4 24.8
12:05 1019 30.09 849 25.07 8.5 47.2 41 -4.1 24.6
12:10 1019 30.09 849 25.07 8.7 47.6 38 -4.9 23.1
12:15 1019 30.09 848 25.04 9.6 49.2 37 -4.5 23.8
12:20 1019 30.09 848 25.04 10.4 50.7 33 -5 23
12:25 1019 30.09 848 25.04 11.1 52 34 -4.3 24.3
12:30 1019 30.09 848 25.04 11 51.9 33 -4.7 23.5
12:35 1019 30.09 848 25.04 11.4 52.6 32 -4.6 23.7
12:40 1019 30.09 848 25.04 11.4 52.6 33 -4.2 24.4
12:45 1019 30.09 848 25.04 12 53.7 32 -4.2 24.4
12:50 1019 30.09 848 25.04 12.4 54.2 32 -3.8 25.2
12:55 1019 30.09 848 25.04 12.3 54.1 32 -4 24.9
13:00 1019 30.09 848 25.04 12.4 54.3 32 -3.6 25.4
13:05 1018 30.06 848 25.04 11.7 53.1 34 -3.7 25.4
13:10 1018 30.06 848 25.04 11.8 53.2 34 -3.6 25.5
13:15 1018 30.06 847 25.01 12 53.5 33 -3.6 25.5
13:20 1018 30.06 847 25.01 11.9 53.4 35 -3.2 26.3
13:25 1018 30.06 847 25.01 11.5 52.7 35 -3.3 26.1
13:30 1018 30.06 847 25.01 11.7 53.1 35 -3 26.6
13:35 1018 30.06 847 25.01 11.7 53.1 36 -2.8 27
13:40 1018 30.06 847 25.01 11.1 52 35 -3.8 25.2
13:45 1018 30.06 847 25.01 10.7 51.2 37 -3.5 25.6
13:50 1018 30.06 847 25.01 10.5 51 37 -3.4 25.9
13:55 1018 30.06 847 25.01 10.5 50.9 36 -3.8 25.1
14:00 1018 30.06 847 25.01 10.7 51.3 36 -3.7 25.4
14:05 1018 30.06 847 25.01 10.8 51.4 37 -3.2 26.2
14:10 1018 30.06 847 25.01 10.9 51.5 36 -3.7 25.4
14:15 1018 30.06 847 25.01 10.7 51.3 37 -3.5 25.7
14:20 1018 30.06 847 25.01 10.8 51.4 36 -3.8 25.2
14:25 1018 30.06 847 25.01 10.7 51.3 37 -3.4 26
14:30 1018 30.06 847 25.01 10.7 51.3 36 -3.6 25.4
14:35 1018 30.06 847 25.01 10.8 51.4 37 -3.4 25.9
14:40 1018 30.06 847 25.01 10.9 51.6 36 -3.4 25.9
14:45 1018 30.06 847 25.01 11.1 52 35 -3.5 25.6
14:50 1018 30.06 847 25.01 11.1 52 36 -3.5 25.8
14:55 1018 30.06 847 25.01 10.9 51.7 36 -3.5 25.7
15:00 1018 30.06 847 25.01 11.3 52.3 35 -3.7 25.3
15:05 1018 30.06 847 25.01 11.3 52.3 36 -3.3 26.1
15:10 1018 30.06 847 25.01 11.6 52.8 34 -3.8 25.2
15:15 1018 30.06 847 25.01 11.8 53.3 34 -3.3 26.1
15:20 1018 30.06 847 25.01 12.3 54.2 33 -3.3 26.1
15:25 1018 30.06 847 25.01 12.3 54.1 34 -3.1 26.5
15:30 1018 30.06 847 25.01 12.5 54.5 35 -2.6 27.3
15:35 1018 30.06 847 25.01 12.8 55.1 34 -2.7 27.1
15:40 1018 30.06 847 25.01 12.7 54.9 33 -2.9 26.7
15:45 1018 30.06 847 25.01 12.7 54.9 34 -2.7 27.2
15:50 1018 30.06 847 25.01 11.9 53.4 35 -2.9 26.7
15:55 1018 30.06 847 25.01 10.9 51.7 37 -3.1 26.4
16:00 1018 30.06 847 25.01 10.5 50.8 38 -3.2 26.3
16:05 1018 30.06 847 25.01 10.1 50.2 40 -2.9 26.8
16:10 1018 30.06 847 25.01 9.9 49.8 39 -3.4 25.9
16:15 1018 30.06 847 25.01 9.7 49.4 39 -3.7 25.3
16:20 1018 30.06 847 25.01 9.8 49.7 40 -3.2 26.3
16:25 1018 30.06 847 25.01 9.5 49 41 -3 26.5
16:30 1018 30.06 847 25.01 9.6 49.2 40 -3.4 25.9
16:35 1018 30.06 847 25.01 9.8 49.6 39 -3.5 25.7
16:40 1018 30.06 847 25.01 10 49.9 39 -3.3 26
16:45 1018 30.06 847 25.01 9.6 49.4 41 -3 26.6
16:50 1018 30.06 847 25.01 9.4 48.9 41 -3 26.5
16:55 1018 30.06 847 25.01 9.3 48.8 40 -3.4 25.9
17:00 1018 30.06 847 25.01 9.6 49.2 38 -4.1 24.5
17:05 1018 30.06 847 25.01 9.7 49.4 40 -3.1 26.4
17:10 1018 30.06 847 25.01 9.5 49 39 -3.6 25.5
17:15 1018 30.06 847 25.01 9.2 48.6 41 -3.2 26.2
17:20 1018 30.06 847 25.01 8.8 47.8 43 -3.2 26.2
17:25 1018 30.06 847 25.01 8.4 47.1 43 -3.3 26.1
17:30 1018 30.06 847 25.01 8.3 47 45 -2.9 26.8
17:35 1018 30.06 847 25.01 8.8 47.8 42 -3.5 25.7
17:40 1018 30.06 847 25.01 8.8 47.8 42 -3.5 25.6
17:45 1018 30.06 847 25.01 8.8 47.8 41 -3.7 25.3
17:50 1018 30.06 847 25.01 8.5 47.2 43 -3.4 25.8
17:55 1018 30.06 847 25.01 8.4 47 42 -3.9 25
18:00 1018 30.06 847 25.01 8.4 47.2 43 -3.5 25.7
18:05 1018 30.06 847 25.01 8.5 47.3 41 -3.8 25.1
18:10 1018 30.06 847 25.01 8.6 47.5 43 -3.4 25.9
18:15 1018 30.06 847 25.01 8.5 47.3 41 -3.9 25
18:20 1018 30.06 847 25.01 8.7 47.7 41 -3.8 25.2
18:25 1018 30.06 847 25.01 8.7 47.7 41 -3.6 25.5
18:30 1018 30.06 847 25.01 8.7 47.7 41 -3.9 25
18:35 1018 30.06 847 25.01 8.9 48 40 -3.8 25.1
18:40 1018 30.06 847 25.01 9 48.1 40 -3.7 25.3
18:45 1018 30.06 847 25.01 8.9 48 41 -3.8 25.2
18:50 1018 30.06 847 25.01 8.7 47.7 42 -3.4 25.9
18:55 1018 30.06 847 25.01 8.5 47.3 44 -3.1 26.4
19:00 1018 30.06 847 25.01 8.3 46.9 44 -3.2 26.2
19:05 1018 30.06 847 25.01 8.4 47.1 45 -2.9 26.8
19:10 1018 30.06 847 25.01 8.4 47 44 -3.1 26.5
19:15 1018 30.06 847 25.01 8.3 46.9 46 -2.6 27.4
19:20 1018 30.06 847 25.01 7.9 46.2 47 -2.7 27.1
19:25 1018 30.06 847 25.01 7.8 46.1 46 -3.1 26.5
19:30 1018 30.06 847 25.01 8.1 46.6 45 -3 26.6
19:35 1018 30.06 848 25.04 8.4 47.1 43 -3.4 25.8
19:40 1018 30.06 847 25.01 9.1 48.3 41 -3.4 25.8
19:45 1018 30.06 847 25.01 9 48.3 44 -2.5 27.5
19:50 1018 30.06 847 25.01 8.5 47.3 43 -3.2 26.2
19:55 1018 30.06 847 25.01 8.7 47.6 44 -2.8 26.9
20:00 1018 30.06 847 25.01 8.7 47.6 44 -2.8 26.9
20:05 1018 30.06 847 25.01 8.6 47.4 46 -2.4 27.7
20:10 1018 30.06 847 25.01 8.4 47 46 -2.5 27.4
20:15 1018 30.06 847 25.01 8.3 47 47 -2.4 27.6
20:20 1018 30.06 848 25.04 8.3 46.9 46 -2.7 27.2
20:25 1018 30.06 848 25.04 8.4 47 47 -2.4 27.7
20:30 1018 30.06 848 25.04 8.2 46.7 47 -2.4 27.7
20:35 1018 30.06 848 25.04 8.2 46.8 46 -2.7 27.2
20:40 1018 30.06 847 25.01 8.5 47.2 45 -2.7 27.1
20:45 1018 30.06 847 25.01 8.6 47.4 46 -2.3 27.9
20:50 1018 30.06 847 25.01 8.4 47.2 46 -2.6 27.3
20:55 1018 30.06 847 25.01 8.6 47.5 44 -2.9 26.7
21:00 1018 30.06 847 25.01 8.8 47.9 45 -2.5 27.5
21:05 1018 30.06 847 25.01 8.8 47.8 44 -2.7 27.2
21:10 1018 30.06 847 25.01 8.7 47.6 44 -2.8 27
21:15 1018 30.06 847 25.01 8.7 47.7 45 -2.7 27.2
21:20 1018 30.06 847 25.01 8.7 47.6 44 -2.8 27
21:25 1018 30.06 847 25.01 8.7 47.7 44 -2.9 26.8
21:30 1018 30.06 847 25.01 8.9 48.1 43 -2.8 26.9
21:35 1018 30.06 847 25.01 8.9 48 43 -2.9 26.8
21:40 1018 30.06 847 25.01 8.9 48.1 45 -2.5 27.6
21:45 1018 30.06 847 25.01 8.7 47.7 45 -2.4 27.6
21:50 1018 30.06 847 25.01 8.3 47 46 -2.4 27.6
21:55 1018 30.06 847 25.01 8.4 47.2 45 -2.8 26.9
22:00 1018 30.06 847 25.01 8.7 47.6 45 -2.7 27.2
22:05 1018 30.06 847 25.01 8.8 47.8 45 -2.6 27.3
22:10 1018 30.06 847 25.01 8.7 47.7 45 -2.6 27.3
22:15 1018 30.06 847 25.01 8.7 47.7 45 -2.4 27.7
22:20 1018 30.06 847 25.01 8.7 47.6 45 -2.6 27.3
22:25 1017 30.03 847 25.01 8.8 47.9 44 -2.7 27.1
22:30 1018 30.06 847 25.01 9.1 48.4 43 -2.9 26.8
22:35 1018 30.06 847 25.01 9.3 48.8 42 -2.8 26.9
22:40 1018 30.06 847 25.01 9.4 48.9 42 -2.9 26.8
22:45 1018 30.06 847 25.01 9.3 48.8 43 -2.5 27.5
22:50 1017 30.03 847 25.01 8.9 48 44 -2.7 27.1
22:55 1017 30.03 846 24.98 8.9 48 44 -2.7 27.1
23:00 1017 30.03 846 24.98 8.9 48 44 -2.7 27.1
23:05 1017 30.03 847 25.01 9 48.2 43 -2.8 27
23:10 1017 30.03 846 24.98 9 48.3 44 -2.6 27.2
23:15 1017 30.03 846 24.98 8.9 47.9 45 -2.5 27.6
23:20 1017 30.03 847 25.01 8.9 48 44 -2.6 27.2
23:25 1017 30.03 846 24.98 8.9 48.1 43 -2.9 26.9
23:30 1017 30.03 846 24.98 9.1 48.4 43 -2.7 27.1
23:35 1017 30.03 846 24.98 8.9 47.9 46 -2.2 28
23:40 1017 30.03 846 24.98 8.5 47.2 47 -2.3 27.8
23:45 1017 30.03 846 24.98 8.4 47.1 50 -1.5 29.3
23:50 1017 30.03 846 24.98 8.7 47.7 47 -1.8 28.7
23:55 1017 30.03 846 24.98 8.8 47.8 46 -2.3 27.8
24:00 1017 30.03 846 24.98 9 48.2 44 -2.7 27.2